sensor_id;sensor_type;location;lat;lon;timestamp;P1;durP1;ratioP1;P2;durP2;ratioP2
83306;SDS011;73223;48.584;13.460;2024-02-28T00:02:22;14.50;;;7.20;;
83306;SDS011;73223;48.584;13.460;2024-02-28T00:04:48;15.90;;;6.72;;
83306;SDS011;73223;48.584;13.460;2024-02-28T00:07:13;16.65;;;7.00;;
83306;SDS011;73223;48.584;13.460;2024-02-28T00:09:39;17.60;;;7.10;;
83306;SDS011;73223;48.584;13.460;2024-02-28T00:12:04;17.67;;;7.67;;
83306;SDS011;73223;48.584;13.460;2024-02-28T00:19:22;16.47;;;7.87;;
83306;SDS011;73223;48.584;13.460;2024-02-28T00:21:49;19.42;;;8.23;;
83306;SDS011;73223;48.584;13.460;2024-02-28T00:24:15;15.43;;;7.87;;
83306;SDS011;73223;48.584;13.460;2024-02-28T00:26:40;15.67;;;7.10;;
83306;SDS011;73223;48.584;13.460;2024-02-28T00:29:07;30.27;;;7.30;;
83306;SDS011;73223;48.584;13.460;2024-02-28T00:31:32;19.03;;;8.77;;
83306;SDS011;73223;48.584;13.460;2024-02-28T00:33:58;17.77;;;7.90;;
83306;SDS011;73223;48.584;13.460;2024-02-28T00:36:23;15.57;;;6.97;;
83306;SDS011;73223;48.584;13.460;2024-02-28T00:38:48;14.57;;;6.80;;
83306;SDS011;73223;48.584;13.460;2024-02-28T00:41:13;15.05;;;7.18;;
83306;SDS011;73223;48.584;13.460;2024-02-28T00:43:39;14.50;;;6.75;;
83306;SDS011;73223;48.584;13.460;2024-02-28T00:46:04;14.97;;;7.03;;
83306;SDS011;73223;48.584;13.460;2024-02-28T00:48:29;13.97;;;6.63;;
83306;SDS011;73223;48.584;13.460;2024-02-28T00:50:54;17.67;;;7.63;;
83306;SDS011;73223;48.584;13.460;2024-02-28T00:53:20;13.68;;;6.65;;
83306;SDS011;73223;48.584;13.460;2024-02-28T00:55:45;17.80;;;6.93;;
83306;SDS011;73223;48.584;13.460;2024-02-28T00:58:11;15.77;;;6.63;;
83306;SDS011;73223;48.584;13.460;2024-02-28T01:00:36;14.20;;;6.63;;
83306;SDS011;73223;48.584;13.460;2024-02-28T01:03:01;15.40;;;6.45;;
83306;SDS011;73223;48.584;13.460;2024-02-28T01:05:30;16.58;;;7.30;;
83306;SDS011;73223;48.584;13.460;2024-02-28T01:07:56;15.75;;;7.30;;
83306;SDS011;73223;48.584;13.460;2024-02-28T01:10:21;17.70;;;7.20;;
83306;SDS011;73223;48.584;13.460;2024-02-28T01:12:47;16.08;;;7.78;;
83306;SDS011;73223;48.584;13.460;2024-02-28T01:15:12;15.32;;;7.05;;
83306;SDS011;73223;48.584;13.460;2024-02-28T01:17:38;15.23;;;6.95;;
83306;SDS011;73223;48.584;13.460;2024-02-28T01:20:04;18.65;;;7.18;;
83306;SDS011;73223;48.584;13.460;2024-02-28T01:22:30;15.95;;;7.10;;
83306;SDS011;73223;48.584;13.460;2024-02-28T01:24:55;14.73;;;7.03;;
83306;SDS011;73223;48.584;13.460;2024-02-28T01:27:20;17.93;;;8.00;;
83306;SDS011;73223;48.584;13.460;2024-02-28T01:29:46;16.47;;;7.03;;
83306;SDS011;73223;48.584;13.460;2024-02-28T01:32:11;13.53;;;6.63;;
83306;SDS011;73223;48.584;13.460;2024-02-28T01:34:36;14.60;;;6.60;;
83306;SDS011;73223;48.584;13.460;2024-02-28T01:37:01;14.00;;;6.93;;
83306;SDS011;73223;48.584;13.460;2024-02-28T01:39:27;14.90;;;7.07;;
83306;SDS011;73223;48.584;13.460;2024-02-28T01:41:52;14.67;;;7.07;;
83306;SDS011;73223;48.584;13.460;2024-02-28T01:44:18;17.80;;;7.28;;
83306;SDS011;73223;48.584;13.460;2024-02-28T01:46:44;17.45;;;7.80;;
83306;SDS011;73223;48.584;13.460;2024-02-28T01:49:09;17.33;;;8.35;;
83306;SDS011;73223;48.584;13.460;2024-02-28T01:51:35;21.17;;;9.00;;
83306;SDS011;73223;48.584;13.460;2024-02-28T01:54:00;20.30;;;8.73;;
83306;SDS011;73223;48.584;13.460;2024-02-28T01:56:26;19.52;;;8.18;;
83306;SDS011;73223;48.584;13.460;2024-02-28T01:58:51;16.50;;;7.38;;
83306;SDS011;73223;48.584;13.460;2024-02-28T02:01:18;16.70;;;6.90;;
83306;SDS011;73223;48.584;13.460;2024-02-28T02:03:43;15.33;;;7.10;;
83306;SDS011;73223;48.584;13.460;2024-02-28T02:06:09;16.52;;;7.35;;
83306;SDS011;73223;48.584;13.460;2024-02-28T02:08:36;24.08;;;8.80;;
83306;SDS011;73223;48.584;13.460;2024-02-28T02:11:02;16.60;;;7.68;;
83306;SDS011;73223;48.584;13.460;2024-02-28T02:13:27;17.65;;;7.22;;
83306;SDS011;73223;48.584;13.460;2024-02-28T02:15:52;19.93;;;7.70;;
83306;SDS011;73223;48.584;13.460;2024-02-28T02:18:17;22.63;;;8.13;;
83306;SDS011;73223;48.584;13.460;2024-02-28T02:20:46;16.70;;;7.73;;
83306;SDS011;73223;48.584;13.460;2024-02-28T02:23:19;20.52;;;8.45;;
83306;SDS011;73223;48.584;13.460;2024-02-28T02:25:45;18.55;;;9.43;;
83306;SDS011;73223;48.584;13.460;2024-02-28T02:28:11;20.92;;;9.13;;
83306;SDS011;73223;48.584;13.460;2024-02-28T02:30:37;21.05;;;9.32;;
83306;SDS011;73223;48.584;13.460;2024-02-28T02:33:03;20.85;;;9.45;;
83306;SDS011;73223;48.584;13.460;2024-02-28T02:35:29;19.85;;;9.35;;
83306;SDS011;73223;48.584;13.460;2024-02-28T02:37:54;17.37;;;7.00;;
83306;SDS011;73223;48.584;13.460;2024-02-28T02:40:19;14.57;;;7.47;;
83306;SDS011;73223;48.584;13.460;2024-02-28T02:42:45;15.60;;;7.57;;
83306;SDS011;73223;48.584;13.460;2024-02-28T02:45:10;17.05;;;7.93;;
83306;SDS011;73223;48.584;13.460;2024-02-28T02:47:35;14.93;;;6.67;;
83306;SDS011;73223;48.584;13.460;2024-02-28T02:50:01;15.80;;;6.70;;
83306;SDS011;73223;48.584;13.460;2024-02-28T02:52:27;18.23;;;7.53;;
83306;SDS011;73223;48.584;13.460;2024-02-28T02:54:52;15.50;;;6.53;;
83306;SDS011;73223;48.584;13.460;2024-02-28T02:57:17;16.83;;;7.33;;
83306;SDS011;73223;48.584;13.460;2024-02-28T02:59:42;14.37;;;6.73;;
83306;SDS011;73223;48.584;13.460;2024-02-28T03:02:08;13.93;;;6.07;;
83306;SDS011;73223;48.584;13.460;2024-02-28T03:04:33;15.53;;;6.67;;
83306;SDS011;73223;48.584;13.460;2024-02-28T03:06:59;16.10;;;7.57;;
83306;SDS011;73223;48.584;13.460;2024-02-28T03:09:24;14.10;;;6.13;;
83306;SDS011;73223;48.584;13.460;2024-02-28T03:11:49;15.43;;;6.55;;
83306;SDS011;73223;48.584;13.460;2024-02-28T03:14:14;20.73;;;8.10;;
83306;SDS011;73223;48.584;13.460;2024-02-28T03:16:43;17.80;;;7.80;;
83306;SDS011;73223;48.584;13.460;2024-02-28T03:19:09;18.30;;;8.55;;
83306;SDS011;73223;48.584;13.460;2024-02-28T03:24:00;19.63;;;8.37;;
83306;SDS011;73223;48.584;13.460;2024-02-28T03:26:26;17.42;;;8.05;;
83306;SDS011;73223;48.584;13.460;2024-02-28T03:28:51;18.27;;;8.20;;
83306;SDS011;73223;48.584;13.460;2024-02-28T03:31:16;17.03;;;8.23;;
83306;SDS011;73223;48.584;13.460;2024-02-28T03:33:41;20.00;;;8.73;;
83306;SDS011;73223;48.584;13.460;2024-02-28T03:36:07;23.20;;;10.00;;
83306;SDS011;73223;48.584;13.460;2024-02-28T03:38:32;20.60;;;9.73;;
83306;SDS011;73223;48.584;13.460;2024-02-28T03:40:57;19.17;;;8.80;;
83306;SDS011;73223;48.584;13.460;2024-02-28T03:43:22;17.35;;;8.63;;
83306;SDS011;73223;48.584;13.460;2024-02-28T03:45:48;19.03;;;8.37;;
83306;SDS011;73223;48.584;13.460;2024-02-28T03:48:13;19.30;;;8.55;;
83306;SDS011;73223;48.584;13.460;2024-02-28T03:50:39;19.63;;;8.32;;
83306;SDS011;73223;48.584;13.460;2024-02-28T03:53:04;17.88;;;8.10;;
83306;SDS011;73223;48.584;13.460;2024-02-28T03:55:30;14.90;;;7.07;;
83306;SDS011;73223;48.584;13.460;2024-02-28T03:57:55;15.38;;;7.32;;
83306;SDS011;73223;48.584;13.460;2024-02-28T04:00:20;14.87;;;7.20;;
83306;SDS011;73223;48.584;13.460;2024-02-28T04:02:46;16.67;;;7.45;;
83306;SDS011;73223;48.584;13.460;2024-02-28T04:05:11;22.77;;;7.63;;
83306;SDS011;73223;48.584;13.460;2024-02-28T04:07:36;20.02;;;7.95;;
83306;SDS011;73223;48.584;13.460;2024-02-28T04:10:02;16.90;;;7.57;;
83306;SDS011;73223;48.584;13.460;2024-02-28T04:12:30;19.65;;;8.27;;
83306;SDS011;73223;48.584;13.460;2024-02-28T04:14:55;17.23;;;7.85;;
83306;SDS011;73223;48.584;13.460;2024-02-28T04:17:20;19.13;;;9.03;;
83306;SDS011;73223;48.584;13.460;2024-02-28T04:19:46;21.48;;;9.25;;
83306;SDS011;73223;48.584;13.460;2024-02-28T04:22:11;21.57;;;10.03;;
83306;SDS011;73223;48.584;13.460;2024-02-28T04:24:36;18.10;;;8.07;;
83306;SDS011;73223;48.584;13.460;2024-02-28T04:27:01;19.50;;;8.63;;
83306;SDS011;73223;48.584;13.460;2024-02-28T04:29:29;18.52;;;8.38;;
83306;SDS011;73223;48.584;13.460;2024-02-28T04:31:55;17.20;;;8.50;;
83306;SDS011;73223;48.584;13.460;2024-02-28T04:34:20;20.45;;;8.65;;
83306;SDS011;73223;48.584;13.460;2024-02-28T04:36:45;19.57;;;9.17;;
83306;SDS011;73223;48.584;13.460;2024-02-28T04:39:10;19.17;;;9.83;;
83306;SDS011;73223;48.584;13.460;2024-02-28T04:41:36;22.63;;;10.57;;
83306;SDS011;73223;48.584;13.460;2024-02-28T04:44:01;16.98;;;8.82;;
83306;SDS011;73223;48.584;13.460;2024-02-28T04:46:26;24.27;;;8.98;;
83306;SDS011;73223;48.584;13.460;2024-02-28T04:48:52;20.40;;;8.32;;
83306;SDS011;73223;48.584;13.460;2024-02-28T04:51:17;17.50;;;7.27;;
83306;SDS011;73223;48.584;13.460;2024-02-28T04:53:42;22.20;;;8.30;;
83306;SDS011;73223;48.584;13.460;2024-02-28T04:56:08;19.40;;;8.05;;
83306;SDS011;73223;48.584;13.460;2024-02-28T04:58:35;17.70;;;7.40;;
83306;SDS011;73223;48.584;13.460;2024-02-28T05:01:00;19.65;;;7.40;;
83306;SDS011;73223;48.584;13.460;2024-02-28T05:03:26;23.10;;;7.57;;
83306;SDS011;73223;48.584;13.460;2024-02-28T05:05:51;17.13;;;7.60;;
83306;SDS011;73223;48.584;13.460;2024-02-28T05:08:18;18.95;;;8.07;;
83306;SDS011;73223;48.584;13.460;2024-02-28T05:10:44;15.25;;;7.05;;
83306;SDS011;73223;48.584;13.460;2024-02-28T05:13:10;24.03;;;7.53;;
83306;SDS011;73223;48.584;13.460;2024-02-28T05:15:35;17.97;;;8.40;;
83306;SDS011;73223;48.584;13.460;2024-02-28T05:18:00;19.73;;;8.60;;
83306;SDS011;73223;48.584;13.460;2024-02-28T05:20:25;18.23;;;7.97;;
83306;SDS011;73223;48.584;13.460;2024-02-28T05:22:51;24.55;;;8.55;;
83306;SDS011;73223;48.584;13.460;2024-02-28T05:25:16;17.83;;;8.73;;
83306;SDS011;73223;48.584;13.460;2024-02-28T05:27:41;21.08;;;9.27;;
83306;SDS011;73223;48.584;13.460;2024-02-28T05:30:07;18.33;;;7.80;;
83306;SDS011;73223;48.584;13.460;2024-02-28T05:32:32;20.80;;;9.15;;
83306;SDS011;73223;48.584;13.460;2024-02-28T05:34:58;19.05;;;9.05;;
83306;SDS011;73223;48.584;13.460;2024-02-28T05:37:23;20.48;;;8.27;;
83306;SDS011;73223;48.584;13.460;2024-02-28T05:39:49;24.02;;;9.25;;
83306;SDS011;73223;48.584;13.460;2024-02-28T05:42:15;21.23;;;9.98;;
83306;SDS011;73223;48.584;13.460;2024-02-28T05:44:46;20.75;;;8.40;;
83306;SDS011;73223;48.584;13.460;2024-02-28T05:47:12;21.20;;;9.05;;
83306;SDS011;73223;48.584;13.460;2024-02-28T05:49:38;22.88;;;8.90;;
83306;SDS011;73223;48.584;13.460;2024-02-28T05:52:04;20.85;;;9.38;;
83306;SDS011;73223;48.584;13.460;2024-02-28T05:54:29;23.02;;;9.65;;
83306;SDS011;73223;48.584;13.460;2024-02-28T05:56:55;19.48;;;9.75;;
83306;SDS011;73223;48.584;13.460;2024-02-28T05:59:20;19.87;;;8.73;;
83306;SDS011;73223;48.584;13.460;2024-02-28T06:01:45;22.00;;;8.17;;
83306;SDS011;73223;48.584;13.460;2024-02-28T06:04:10;22.43;;;8.73;;
83306;SDS011;73223;48.584;13.460;2024-02-28T06:06:36;19.10;;;8.68;;
83306;SDS011;73223;48.584;13.460;2024-02-28T06:09:01;17.10;;;7.90;;
83306;SDS011;73223;48.584;13.460;2024-02-28T06:11:27;19.88;;;9.63;;
83306;SDS011;73223;48.584;13.460;2024-02-28T06:13:52;18.83;;;8.07;;
83306;SDS011;73223;48.584;13.460;2024-02-28T06:16:18;16.85;;;8.10;;
83306;SDS011;73223;48.584;13.460;2024-02-28T06:18:43;19.10;;;8.48;;
83306;SDS011;73223;48.584;13.460;2024-02-28T06:21:09;18.23;;;8.13;;
83306;SDS011;73223;48.584;13.460;2024-02-28T06:23:34;14.45;;;7.93;;
83306;SDS011;73223;48.584;13.460;2024-02-28T06:25:59;17.07;;;8.17;;
83306;SDS011;73223;48.584;13.460;2024-02-28T06:28:25;18.77;;;9.25;;
83306;SDS011;73223;48.584;13.460;2024-02-28T06:30:51;23.40;;;10.00;;
83306;SDS011;73223;48.584;13.460;2024-02-28T06:33:17;18.00;;;8.68;;
83306;SDS011;73223;48.584;13.460;2024-02-28T06:35:42;20.33;;;8.98;;
83306;SDS011;73223;48.584;13.460;2024-02-28T06:38:07;19.33;;;8.63;;
83306;SDS011;73223;48.584;13.460;2024-02-28T06:40:33;21.97;;;8.77;;
83306;SDS011;73223;48.584;13.460;2024-02-28T06:42:58;21.10;;;10.20;;
83306;SDS011;73223;48.584;13.460;2024-02-28T06:45:24;20.08;;;9.13;;
83306;SDS011;73223;48.584;13.460;2024-02-28T06:47:49;21.47;;;9.07;;
83306;SDS011;73223;48.584;13.460;2024-02-28T06:50:16;24.42;;;9.00;;
83306;SDS011;73223;48.584;13.460;2024-02-28T06:52:41;18.98;;;8.50;;
83306;SDS011;73223;48.584;13.460;2024-02-28T06:55:07;21.00;;;9.77;;
83306;SDS011;73223;48.584;13.460;2024-02-28T06:57:38;22.90;;;10.50;;
83306;SDS011;73223;48.584;13.460;2024-02-28T07:00:08;24.85;;;10.07;;
83306;SDS011;73223;48.584;13.460;2024-02-28T07:02:35;23.85;;;10.38;;
83306;SDS011;73223;48.584;13.460;2024-02-28T07:05:01;21.08;;;10.23;;
83306;SDS011;73223;48.584;13.460;2024-02-28T07:07:28;22.92;;;11.50;;
83306;SDS011;73223;48.584;13.460;2024-02-28T07:09:53;22.40;;;9.77;;
83306;SDS011;73223;48.584;13.460;2024-02-28T07:12:18;19.07;;;8.97;;
83306;SDS011;73223;48.584;13.460;2024-02-28T07:14:43;18.67;;;9.20;;
83306;SDS011;73223;48.584;13.460;2024-02-28T07:17:09;17.33;;;8.10;;
83306;SDS011;73223;48.584;13.460;2024-02-28T07:19:35;25.15;;;10.00;;
83306;SDS011;73223;48.584;13.460;2024-02-28T07:22:00;21.02;;;10.07;;
83306;SDS011;73223;48.584;13.460;2024-02-28T07:24:26;26.05;;;11.18;;
83306;SDS011;73223;48.584;13.460;2024-02-28T07:26:51;23.20;;;10.47;;
83306;SDS011;73223;48.584;13.460;2024-02-28T07:29:17;26.75;;;10.75;;
83306;SDS011;73223;48.584;13.460;2024-02-28T07:31:42;21.03;;;9.03;;
83306;SDS011;73223;48.584;13.460;2024-02-28T07:34:07;21.80;;;9.05;;
83306;SDS011;73223;48.584;13.460;2024-02-28T07:36:33;19.08;;;8.65;;
83306;SDS011;73223;48.584;13.460;2024-02-28T07:38:59;24.58;;;10.23;;
83306;SDS011;73223;48.584;13.460;2024-02-28T07:41:24;23.73;;;10.52;;
83306;SDS011;73223;48.584;13.460;2024-02-28T07:43:49;24.00;;;10.68;;
83306;SDS011;73223;48.584;13.460;2024-02-28T07:46:15;23.97;;;11.43;;
83306;SDS011;73223;48.584;13.460;2024-02-28T07:48:40;22.40;;;10.37;;
83306;SDS011;73223;48.584;13.460;2024-02-28T07:51:06;25.73;;;10.67;;
83306;SDS011;73223;48.584;13.460;2024-02-28T07:53:31;23.52;;;10.25;;
83306;SDS011;73223;48.584;13.460;2024-02-28T07:55:57;21.67;;;10.10;;
83306;SDS011;73223;48.584;13.460;2024-02-28T07:58:22;24.20;;;10.37;;
83306;SDS011;73223;48.584;13.460;2024-02-28T08:00:47;17.58;;;8.80;;
83306;SDS011;73223;48.584;13.460;2024-02-28T08:03:13;19.00;;;8.80;;
83306;SDS011;73223;48.584;13.460;2024-02-28T08:05:38;21.15;;;9.68;;
83306;SDS011;73223;48.584;13.460;2024-02-28T08:08:08;22.08;;;10.02;;
83306;SDS011;73223;48.584;13.460;2024-02-28T08:10:33;19.02;;;10.45;;
83306;SDS011;73223;48.584;13.460;2024-02-28T08:13:00;20.52;;;9.85;;
83306;SDS011;73223;48.584;13.460;2024-02-28T08:15:26;21.55;;;9.90;;
83306;SDS011;73223;48.584;13.460;2024-02-28T08:17:51;23.50;;;10.88;;
83306;SDS011;73223;48.584;13.460;2024-02-28T08:20:16;22.75;;;11.10;;
83306;SDS011;73223;48.584;13.460;2024-02-28T08:22:42;19.65;;;9.88;;
83306;SDS011;73223;48.584;13.460;2024-02-28T08:25:07;26.90;;;10.43;;
83306;SDS011;73223;48.584;13.460;2024-02-28T08:27:36;21.23;;;10.05;;
83306;SDS011;73223;48.584;13.460;2024-02-28T08:30:01;22.13;;;10.57;;
83306;SDS011;73223;48.584;13.460;2024-02-28T08:32:28;20.65;;;9.23;;
83306;SDS011;73223;48.584;13.460;2024-02-28T08:34:53;24.40;;;10.97;;
83306;SDS011;73223;48.584;13.460;2024-02-28T08:37:19;22.42;;;10.40;;
83306;SDS011;73223;48.584;13.460;2024-02-28T08:39:44;21.67;;;9.43;;
83306;SDS011;73223;48.584;13.460;2024-02-28T08:42:10;22.65;;;9.85;;
83306;SDS011;73223;48.584;13.460;2024-02-28T08:44:35;20.63;;;9.68;;
83306;SDS011;73223;48.584;13.460;2024-02-28T08:47:00;23.33;;;9.73;;
83306;SDS011;73223;48.584;13.460;2024-02-28T08:49:25;19.77;;;10.10;;
83306;SDS011;73223;48.584;13.460;2024-02-28T08:51:51;26.33;;;9.82;;
83306;SDS011;73223;48.584;13.460;2024-02-28T08:54:16;21.88;;;10.13;;
83306;SDS011;73223;48.584;13.460;2024-02-28T08:56:42;21.90;;;9.82;;
83306;SDS011;73223;48.584;13.460;2024-02-28T08:59:07;26.33;;;10.27;;
83306;SDS011;73223;48.584;13.460;2024-02-28T09:01:32;30.92;;;12.30;;
83306;SDS011;73223;48.584;13.460;2024-02-28T09:04:01;28.58;;;11.98;;
83306;SDS011;73223;48.584;13.460;2024-02-28T09:06:26;32.85;;;11.30;;
83306;SDS011;73223;48.584;13.460;2024-02-28T09:08:52;27.83;;;11.75;;
83306;SDS011;73223;48.584;13.460;2024-02-28T09:11:17;26.85;;;12.20;;
83306;SDS011;73223;48.584;13.460;2024-02-28T09:13:42;35.07;;;13.93;;
83306;SDS011;73223;48.584;13.460;2024-02-28T09:16:08;28.23;;;11.90;;
83306;SDS011;73223;48.584;13.460;2024-02-28T09:18:33;28.98;;;13.07;;
83306;SDS011;73223;48.584;13.460;2024-02-28T09:20:58;33.58;;;12.70;;
83306;SDS011;73223;48.584;13.460;2024-02-28T09:23:24;32.75;;;13.13;;
83306;SDS011;73223;48.584;13.460;2024-02-28T09:25:49;36.20;;;14.10;;
83306;SDS011;73223;48.584;13.460;2024-02-28T09:28:14;26.60;;;12.18;;
83306;SDS011;73223;48.584;13.460;2024-02-28T09:30:41;32.67;;;13.35;;
83306;SDS011;73223;48.584;13.460;2024-02-28T09:33:06;37.67;;;13.52;;
83306;SDS011;73223;48.584;13.460;2024-02-28T09:35:32;29.87;;;12.67;;
83306;SDS011;73223;48.584;13.460;2024-02-28T09:37:57;37.35;;;13.75;;
83306;SDS011;73223;48.584;13.460;2024-02-28T09:40:22;39.60;;;13.13;;
83306;SDS011;73223;48.584;13.460;2024-02-28T09:43:01;40.35;;;15.63;;
83306;SDS011;73223;48.584;13.460;2024-02-28T09:45:28;33.15;;;12.85;;
83306;SDS011;73223;48.584;13.460;2024-02-28T09:47:56;38.22;;;16.05;;
83306;SDS011;73223;48.584;13.460;2024-02-28T09:50:22;48.58;;;16.00;;
83306;SDS011;73223;48.584;13.460;2024-02-28T09:52:48;40.20;;;15.02;;
83306;SDS011;73223;48.584;13.460;2024-02-28T09:55:13;52.40;;;16.85;;
83306;SDS011;73223;48.584;13.460;2024-02-28T09:57:39;53.30;;;17.00;;
83306;SDS011;73223;48.584;13.460;2024-02-28T10:00:06;46.90;;;15.25;;
83306;SDS011;73223;48.584;13.460;2024-02-28T10:02:32;38.63;;;13.82;;
83306;SDS011;73223;48.584;13.460;2024-02-28T10:04:59;49.40;;;15.85;;
83306;SDS011;73223;48.584;13.460;2024-02-28T10:07:25;53.70;;;15.50;;
83306;SDS011;73223;48.584;13.460;2024-02-28T10:09:52;44.70;;;14.57;;
83306;SDS011;73223;48.584;13.460;2024-02-28T10:12:17;41.43;;;14.77;;
83306;SDS011;73223;48.584;13.460;2024-02-28T10:14:44;54.78;;;15.32;;
83306;SDS011;73223;48.584;13.460;2024-02-28T10:17:09;47.88;;;15.20;;
83306;SDS011;73223;48.584;13.460;2024-02-28T10:19:34;58.60;;;16.45;;
83306;SDS011;73223;48.584;13.460;2024-02-28T10:22:00;47.45;;;16.60;;
83306;SDS011;73223;48.584;13.460;2024-02-28T10:24:25;49.93;;;16.40;;
83306;SDS011;73223;48.584;13.460;2024-02-28T10:26:50;47.47;;;17.23;;
83306;SDS011;73223;48.584;13.460;2024-02-28T10:29:22;46.83;;;15.55;;
83306;SDS011;73223;48.584;13.460;2024-02-28T10:31:48;55.83;;;16.40;;
83306;SDS011;73223;48.584;13.460;2024-02-28T10:34:18;40.92;;;15.13;;
83306;SDS011;73223;48.584;13.460;2024-02-28T10:36:46;52.75;;;17.45;;
83306;SDS011;73223;48.584;13.460;2024-02-28T10:39:12;43.10;;;16.98;;
83306;SDS011;73223;48.584;13.460;2024-02-28T10:41:37;44.30;;;15.63;;
83306;SDS011;73223;48.584;13.460;2024-02-28T10:44:04;48.55;;;15.45;;
83306;SDS011;73223;48.584;13.460;2024-02-28T10:46:30;53.85;;;17.40;;
83306;SDS011;73223;48.584;13.460;2024-02-28T10:48:56;43.60;;;17.05;;
83306;SDS011;73223;48.584;13.460;2024-02-28T10:51:25;48.80;;;16.75;;
83306;SDS011;73223;48.584;13.460;2024-02-28T10:56:38;49.22;;;16.58;;
83306;SDS011;73223;48.584;13.460;2024-02-28T10:59:05;43.42;;;16.25;;
83306;SDS011;73223;48.584;13.460;2024-02-28T11:01:32;52.33;;;18.10;;
83306;SDS011;73223;48.584;13.460;2024-02-28T11:04:00;48.65;;;16.67;;
83306;SDS011;73223;48.584;13.460;2024-02-28T11:06:26;43.42;;;16.38;;
83306;SDS011;73223;48.584;13.460;2024-02-28T11:08:52;40.47;;;16.00;;
83306;SDS011;73223;48.584;13.460;2024-02-28T11:11:19;46.33;;;15.20;;
83306;SDS011;73223;48.584;13.460;2024-02-28T11:13:55;43.22;;;16.15;;
83306;SDS011;73223;48.584;13.460;2024-02-28T11:16:34;52.50;;;19.10;;
83306;SDS011;73223;48.584;13.460;2024-02-28T11:19:01;47.10;;;16.50;;
83306;SDS011;73223;48.584;13.460;2024-02-28T11:21:28;47.88;;;17.17;;
83306;SDS011;73223;48.584;13.460;2024-02-28T11:24:01;53.85;;;17.25;;
83306;SDS011;73223;48.584;13.460;2024-02-28T11:26:26;47.47;;;16.67;;
83306;SDS011;73223;48.584;13.460;2024-02-28T11:28:55;58.13;;;18.13;;
83306;SDS011;73223;48.584;13.460;2024-02-28T11:31:21;51.08;;;16.73;;
83306;SDS011;73223;48.584;13.460;2024-02-28T11:33:46;47.70;;;18.20;;
83306;SDS011;73223;48.584;13.460;2024-02-28T11:36:13;50.25;;;17.27;;
83306;SDS011;73223;48.584;13.460;2024-02-28T11:38:39;54.00;;;17.38;;
83306;SDS011;73223;48.584;13.460;2024-02-28T11:41:05;49.72;;;16.92;;
83306;SDS011;73223;48.584;13.460;2024-02-28T11:43:31;50.80;;;17.30;;
83306;SDS011;73223;48.584;13.460;2024-02-28T11:46:00;48.63;;;16.45;;
83306;SDS011;73223;48.584;13.460;2024-02-28T11:48:26;51.72;;;17.58;;
83306;SDS011;73223;48.584;13.460;2024-02-28T11:50:53;46.17;;;16.45;;
83306;SDS011;73223;48.584;13.460;2024-02-28T11:53:18;50.47;;;17.00;;
83306;SDS011;73223;48.584;13.460;2024-02-28T11:55:45;40.50;;;16.33;;
83306;SDS011;73223;48.584;13.460;2024-02-28T11:58:12;53.50;;;16.63;;
83306;SDS011;73223;48.584;13.460;2024-02-28T12:00:50;44.42;;;16.33;;
83306;SDS011;73223;48.584;13.460;2024-02-28T12:03:25;56.08;;;16.35;;
83306;SDS011;73223;48.584;13.460;2024-02-28T12:05:51;41.88;;;16.25;;
83306;SDS011;73223;48.584;13.460;2024-02-28T12:08:17;46.58;;;16.55;;
83306;SDS011;73223;48.584;13.460;2024-02-28T12:10:44;49.30;;;17.40;;
83306;SDS011;73223;48.584;13.460;2024-02-28T12:13:10;46.70;;;16.95;;
83306;SDS011;73223;48.584;13.460;2024-02-28T12:15:36;44.90;;;16.48;;
83306;SDS011;73223;48.584;13.460;2024-02-28T12:18:07;44.25;;;16.50;;
83306;SDS011;73223;48.584;13.460;2024-02-28T12:20:34;45.67;;;16.23;;
83306;SDS011;73223;48.584;13.460;2024-02-28T12:22:59;49.53;;;16.50;;
83306;SDS011;73223;48.584;13.460;2024-02-28T12:25:24;46.00;;;17.40;;
83306;SDS011;73223;48.584;13.460;2024-02-28T12:27:50;46.83;;;16.20;;
83306;SDS011;73223;48.584;13.460;2024-02-28T12:30:15;40.23;;;16.60;;
83306;SDS011;73223;48.584;13.460;2024-02-28T12:32:40;38.58;;;15.30;;
83306;SDS011;73223;48.584;13.460;2024-02-28T12:35:06;40.37;;;15.93;;
83306;SDS011;73223;48.584;13.460;2024-02-28T12:37:32;39.83;;;14.90;;
83306;SDS011;73223;48.584;13.460;2024-02-28T12:39:57;43.65;;;15.20;;
83306;SDS011;73223;48.584;13.460;2024-02-28T12:42:22;42.87;;;14.97;;
83306;SDS011;73223;48.584;13.460;2024-02-28T12:44:48;40.63;;;15.47;;
83306;SDS011;73223;48.584;13.460;2024-02-28T12:47:13;32.50;;;13.93;;
83306;SDS011;73223;48.584;13.460;2024-02-28T12:49:38;36.93;;;15.37;;
83306;SDS011;73223;48.584;13.460;2024-02-28T12:52:03;34.10;;;14.88;;
83306;SDS011;73223;48.584;13.460;2024-02-28T12:54:29;39.00;;;15.48;;
83306;SDS011;73223;48.584;13.460;2024-02-28T12:56:55;38.40;;;13.18;;
83306;SDS011;73223;48.584;13.460;2024-02-28T12:59:20;44.47;;;15.13;;
83306;SDS011;73223;48.584;13.460;2024-02-28T13:01:46;42.53;;;15.30;;
83306;SDS011;73223;48.584;13.460;2024-02-28T13:04:12;41.05;;;14.68;;
83306;SDS011;73223;48.584;13.460;2024-02-28T13:06:38;39.53;;;14.88;;
83306;SDS011;73223;48.584;13.460;2024-02-28T13:09:03;36.60;;;14.43;;
83306;SDS011;73223;48.584;13.460;2024-02-28T13:11:29;39.63;;;15.68;;
83306;SDS011;73223;48.584;13.460;2024-02-28T13:13:55;36.75;;;15.23;;
83306;SDS011;73223;48.584;13.460;2024-02-28T13:16:20;34.88;;;12.82;;
83306;SDS011;73223;48.584;13.460;2024-02-28T13:18:47;36.95;;;13.23;;
83306;SDS011;73223;48.584;13.460;2024-02-28T13:21:12;38.03;;;14.70;;
83306;SDS011;73223;48.584;13.460;2024-02-28T13:23:37;39.13;;;14.07;;
83306;SDS011;73223;48.584;13.460;2024-02-28T13:26:06;31.33;;;13.13;;
83306;SDS011;73223;48.584;13.460;2024-02-28T13:28:32;37.50;;;14.38;;
83306;SDS011;73223;48.584;13.460;2024-02-28T13:30:58;37.15;;;14.82;;
83306;SDS011;73223;48.584;13.460;2024-02-28T13:33:24;35.45;;;13.43;;
83306;SDS011;73223;48.584;13.460;2024-02-28T13:35:50;35.92;;;14.20;;
83306;SDS011;73223;48.584;13.460;2024-02-28T13:38:15;35.72;;;14.38;;
83306;SDS011;73223;48.584;13.460;2024-02-28T13:40:41;35.40;;;14.45;;
83306;SDS011;73223;48.584;13.460;2024-02-28T13:43:09;36.40;;;13.70;;
83306;SDS011;73223;48.584;13.460;2024-02-28T13:45:35;35.20;;;14.60;;
83306;SDS011;73223;48.584;13.460;2024-02-28T13:48:00;37.15;;;13.93;;
83306;SDS011;73223;48.584;13.460;2024-02-28T13:50:25;38.87;;;13.80;;
83306;SDS011;73223;48.584;13.460;2024-02-28T13:52:56;28.52;;;12.32;;
83306;SDS011;73223;48.584;13.460;2024-02-28T13:57:49;35.22;;;13.57;;
83306;SDS011;73223;48.584;13.460;2024-02-28T14:00:14;35.10;;;12.77;;
83306;SDS011;73223;48.584;13.460;2024-02-28T14:02:40;38.50;;;14.45;;
83306;SDS011;73223;48.584;13.460;2024-02-28T14:05:06;44.95;;;15.25;;
83306;SDS011;73223;48.584;13.460;2024-02-28T14:07:32;37.33;;;14.98;;
83306;SDS011;73223;48.584;13.460;2024-02-28T14:09:58;37.83;;;14.15;;
83306;SDS011;73223;48.584;13.460;2024-02-28T14:12:23;38.63;;;15.88;;
83306;SDS011;73223;48.584;13.460;2024-02-28T14:14:49;33.67;;;14.55;;
83306;SDS011;73223;48.584;13.460;2024-02-28T14:17:14;40.70;;;17.15;;
83306;SDS011;73223;48.584;13.460;2024-02-28T14:19:39;33.03;;;13.80;;
83306;SDS011;73223;48.584;13.460;2024-02-28T14:22:05;40.03;;;14.02;;